createdAt,value
2024-02-15T00:00:00.648Z,97005.09
2024-02-15T00:02:27.718Z,97014.81
2024-02-15T00:04:54.682Z,97003.94
2024-02-15T00:07:23.991Z,97011.09
2024-02-15T00:09:51.206Z,97004.19
2024-02-15T00:12:18.206Z,97002.56
2024-02-15T00:14:45.211Z,97007.66
2024-02-15T00:17:13.018Z,96995.66
2024-02-15T00:19:42.871Z,96999.94
2024-02-15T00:22:10.804Z,96996.03
2024-02-15T00:24:39.321Z,96998.59
2024-02-15T00:27:06.827Z,97009.75
2024-02-15T00:29:35.542Z,97000.84
2024-02-15T00:32:04.780Z,97011.34
2024-02-15T00:34:32.418Z,97008.94
2024-02-15T00:36:59.876Z,97015.00
2024-02-15T00:39:26.772Z,97000.50
2024-02-15T00:41:53.773Z,97005.41
2024-02-15T00:44:21.337Z,97010.28
2024-02-15T00:46:49.151Z,97004.75
2024-02-15T00:49:16.749Z,97011.47
2024-02-15T00:51:43.874Z,97013.53
2024-02-15T00:54:10.750Z,97005.88
2024-02-15T00:56:37.762Z,97004.31
2024-02-15T00:59:06.404Z,96994.78
2024-02-15T01:01:33.459Z,97009.66
2024-02-15T01:04:00.361Z,97007.66
2024-02-15T01:06:27.417Z,97009.66
2024-02-15T01:08:54.456Z,97009.66
2024-02-15T01:11:21.978Z,97008.00
2024-02-15T01:13:48.914Z,97011.66
2024-02-15T01:16:16.688Z,96997.88
2024-02-15T01:18:43.986Z,97003.56
2024-02-15T01:21:12.501Z,97012.91
2024-02-15T01:23:40.047Z,97012.91
2024-02-15T01:26:07.110Z,97008.00
2024-02-15T01:28:34.043Z,96999.50
2024-02-15T01:31:01.122Z,97003.31
2024-02-15T01:33:28.332Z,96999.59
2024-02-15T01:35:55.892Z,96994.38
2024-02-15T01:38:23.142Z,96999.63
2024-02-15T01:40:50.226Z,96998.09
2024-02-15T01:43:17.196Z,96994.16
2024-02-15T01:45:44.241Z,96998.59
2024-02-15T01:48:12.229Z,96986.38
2024-02-15T01:50:40.049Z,96996.91
2024-02-15T01:53:11.375Z,96988.00
2024-02-15T01:55:40.983Z,97003.13
2024-02-15T01:58:08.329Z,96991.63
2024-02-15T02:00:37.651Z,97001.50
2024-02-15T02:03:06.177Z,96994.16
2024-02-15T02:05:33.267Z,96984.75
2024-02-15T02:08:02.747Z,96981.91
2024-02-15T02:10:33.812Z,96978.94
2024-02-15T02:13:05.128Z,96979.50
2024-02-15T02:15:35.767Z,96989.28
2024-02-15T02:18:03.118Z,96983.66
2024-02-15T02:20:30.407Z,96978.41
2024-02-15T02:23:15.240Z,96989.91
2024-02-15T02:25:45.535Z,96988.47
2024-02-15T02:28:13.248Z,96977.59
2024-02-15T02:30:42.862Z,96981.78
2024-02-15T02:33:20.473Z,96982.59
2024-02-15T02:35:49.263Z,96983.53
2024-02-15T02:38:16.751Z,96982.44
2024-02-15T02:40:43.772Z,96976.84
2024-02-15T02:43:11.182Z,96979.75
2024-02-15T02:45:38.572Z,96974.84
2024-02-15T02:48:06.540Z,96977.28
2024-02-15T02:50:33.860Z,96973.56
2024-02-15T02:53:01.175Z,96972.84
2024-02-15T02:55:31.779Z,96981.72
2024-02-15T02:57:58.787Z,96970.84
2024-02-15T03:00:25.761Z,96967.59
2024-02-15T03:02:52.830Z,96969.59
2024-02-15T03:05:22.352Z,96977.19
2024-02-15T03:07:49.880Z,96968.38
2024-02-15T03:10:16.877Z,96972.66
2024-02-15T03:12:49.028Z,96967.78
2024-02-15T03:15:18.061Z,96978.59
2024-02-15T03:17:48.674Z,96970.22
2024-02-15T03:20:22.394Z,96972.66
2024-02-15T03:22:57.665Z,96970.22
2024-02-15T03:25:26.190Z,96967.59
2024-02-15T03:27:54.900Z,96973.94
2024-02-15T03:30:23.512Z,96972.75
2024-02-15T03:32:52.240Z,96964.34
2024-02-15T03:35:25.223Z,96975.22
2024-02-15T03:37:53.257Z,96973.47
2024-02-15T03:40:21.780Z,96965.16
2024-02-15T03:42:49.233Z,96964.19
2024-02-15T03:45:17.147Z,96965.19
2024-02-15T03:47:44.392Z,96970.00
2024-02-15T03:50:11.846Z,96962.28
2024-02-15T03:52:39.634Z,96969.53
2024-02-15T03:55:08.678Z,96966.25
2024-02-15T03:57:36.778Z,96970.63
2024-02-15T04:00:05.550Z,96972.94
2024-02-15T04:02:32.547Z,96978.91
2024-02-15T04:04:59.431Z,96977.38
2024-02-15T04:07:28.034Z,96981.81
2024-02-15T04:09:55.386Z,96972.84
2024-02-15T04:12:22.815Z,96982.19
2024-02-15T04:14:50.298Z,96975.38
2024-02-15T04:17:18.210Z,96990.13
2024-02-15T04:19:48.933Z,96982.63
2024-02-15T04:22:17.369Z,96980.81
2024-02-15T04:24:46.489Z,96980.81
2024-02-15T04:27:15.217Z,96981.63
2024-02-15T04:29:45.280Z,96983.25
2024-02-15T04:32:14.327Z,96983.44
2024-02-15T04:34:41.818Z,96986.38
2024-02-15T04:37:09.193Z,96980.75
2024-02-15T04:39:37.256Z,96984.31
2024-02-15T04:42:10.979Z,96979.69
2024-02-15T04:44:41.298Z,96980.13
2024-02-15T04:47:09.751Z,96979.97
2024-02-15T04:49:39.243Z,96972.09
2024-02-15T04:52:07.741Z,96978.97
2024-02-15T04:54:34.780Z,96976.88
2024-02-15T04:57:02.173Z,96978.69
2024-02-15T04:59:30.377Z,96981.69
2024-02-15T05:01:59.252Z,96989.91
2024-02-15T05:04:26.363Z,96979.13
2024-02-15T05:06:54.489Z,96978.19
2024-02-15T05:09:21.586Z,96977.28
2024-02-15T05:11:49.626Z,96964.84
2024-02-15T05:14:20.818Z,96962.13
2024-02-15T05:16:49.737Z,96968.56
2024-02-15T05:19:20.167Z,96966.00
2024-02-15T05:21:47.752Z,96963.44
2024-02-15T05:24:16.694Z,96967.75
2024-02-15T05:26:49.969Z,96979.59
2024-02-15T05:29:18.055Z,96967.19
2024-02-15T05:31:45.118Z,96966.34
2024-02-15T05:34:13.316Z,96967.56
2024-02-15T05:36:40.735Z,96967.56
2024-02-15T05:39:08.834Z,96963.09
2024-02-15T05:41:36.585Z,96965.38
2024-02-15T05:44:07.965Z,96962.31
2024-02-15T05:46:38.721Z,96967.19
2024-02-15T05:49:06.536Z,96978.03
2024-02-15T05:51:35.623Z,96975.75
2024-02-15T05:54:03.560Z,96985.25
2024-02-15T05:56:30.618Z,96975.47
2024-02-15T05:58:58.276Z,96977.81
2024-02-15T06:01:25.574Z,96973.25
2024-02-15T06:03:56.236Z,96972.94
2024-02-15T06:06:24.398Z,96970.38
2024-02-15T06:08:51.598Z,96969.38
2024-02-15T06:11:22.071Z,96970.72
2024-02-15T06:13:49.442Z,96975.66
2024-02-15T06:16:16.362Z,96971.06
2024-02-15T06:18:43.497Z,96984.19
2024-02-15T06:21:10.645Z,96976.59
2024-02-15T06:23:38.553Z,96976.94
2024-02-15T06:26:05.702Z,96977.75
2024-02-15T06:28:51.036Z,96982.53
2024-02-15T06:31:36.500Z,96986.97
2024-02-15T06:34:22.173Z,96982.41
2024-02-15T06:37:10.073Z,96987.53
2024-02-15T06:39:43.100Z,96992.78
2024-02-15T06:42:19.548Z,96992.78
2024-02-15T06:44:48.270Z,96993.09
2024-02-15T06:47:18.594Z,96996.84
2024-02-15T06:49:47.606Z,97001.25
2024-02-15T06:52:15.061Z,97008.56
2024-02-15T06:54:43.484Z,97000.16
2024-02-15T06:57:11.334Z,96998.09
2024-02-15T06:59:40.566Z,96995.75
2024-02-15T07:02:09.468Z,97002.06
2024-02-15T07:04:38.216Z,97001.00
2024-02-15T07:07:05.903Z,97005.06
2024-02-15T07:09:33.667Z,97010.84
2024-02-15T07:12:00.957Z,97010.31
2024-02-15T07:14:30.785Z,97006.69
2024-02-15T07:17:00.400Z,97001.81
2024-02-15T07:19:28.819Z,96998.28
2024-02-15T07:21:57.934Z,96997.66
2024-02-15T07:24:28.107Z,97005.66
2024-02-15T07:26:56.830Z,96996.41
2024-02-15T07:29:24.633Z,96991.75
2024-02-15T07:31:51.838Z,97001.94
2024-02-15T07:34:19.091Z,97003.97
2024-02-15T07:36:46.682Z,96996.72
2024-02-15T07:39:24.198Z,96989.41
2024-02-15T07:41:54.157Z,96996.03
2024-02-15T07:44:21.386Z,96994.63
2024-02-15T07:46:48.651Z,96989.53
2024-02-15T07:49:15.925Z,96991.13
2024-02-15T07:51:42.967Z,96991.47
2024-02-15T07:54:09.913Z,96987.47
2024-02-15T07:56:36.950Z,96985.00
2024-02-15T07:59:04.147Z,96993.19
2024-02-15T08:01:32.624Z,96985.50
2024-02-15T08:03:59.654Z,96984.78
2024-02-15T08:06:29.279Z,96988.28
2024-02-15T08:08:56.585Z,96988.56
2024-02-15T08:11:24.671Z,96991.53
2024-02-15T08:13:59.977Z,96981.84
2024-02-15T08:16:28.585Z,96985.97
2024-02-15T08:18:56.711Z,96974.56
2024-02-15T08:21:37.299Z,96980.88
2024-02-15T08:24:06.845Z,96968.25
2024-02-15T08:26:37.289Z,96973.47
2024-02-15T08:29:04.435Z,96966.34
2024-02-15T08:31:32.881Z,96970.81
2024-02-15T08:34:00.015Z,96962.84
2024-02-15T08:36:27.204Z,96970.97
2024-02-15T08:38:55.150Z,96956.53
2024-02-15T08:41:24.523Z,96959.09
2024-02-15T08:43:51.413Z,96948.06
2024-02-15T08:46:18.296Z,96946.09
2024-02-15T08:48:45.944Z,96946.88
2024-02-15T08:51:13.263Z,96942.69
2024-02-15T08:53:40.342Z,96943.25
2024-02-15T08:56:07.537Z,96938.50
2024-02-15T08:58:34.459Z,96948.91
2024-02-15T09:01:01.683Z,96941.72
2024-02-15T09:03:28.767Z,96945.00
2024-02-15T09:05:55.840Z,96940.91
2024-02-15T09:08:23.470Z,96946.22
2024-02-15T09:10:54.936Z,96944.91
2024-02-15T09:13:21.889Z,96948.03
2024-02-15T09:15:48.746Z,96945.00
2024-02-15T09:18:16.168Z,96940.94
2024-02-15T09:20:46.064Z,96940.06
2024-02-15T09:23:13.439Z,96938.25
2024-02-15T09:25:40.373Z,96934.97
2024-02-15T09:28:07.690Z,96937.50
2024-02-15T09:30:36.440Z,96933.50
2024-02-15T09:33:06.174Z,96926.75
2024-02-15T09:35:33.611Z,96919.19
2024-02-15T09:38:00.667Z,96916.41
2024-02-15T09:40:30.318Z,96925.63
2024-02-15T09:42:57.467Z,96922.41
2024-02-15T09:45:26.150Z,96923.31
2024-02-15T09:47:54.834Z,96920.78
2024-02-15T09:50:25.537Z,96914.91
2024-02-15T09:52:57.639Z,96909.16
2024-02-15T09:55:25.690Z,96898.56
2024-02-15T09:57:52.778Z,96900.47
2024-02-15T10:00:20.316Z,96900.19
2024-02-15T10:02:57.055Z,96901.81
2024-02-15T10:05:24.546Z,96894.44
2024-02-15T10:07:51.603Z,96894.53
2024-02-15T10:10:24.310Z,96891.72
2024-02-15T10:12:57.098Z,96889.59
2024-02-15T10:15:41.470Z,96885.81
2024-02-15T10:18:11.936Z,96883.13
2024-02-15T10:20:46.186Z,96877.94
2024-02-15T10:23:18.656Z,96880.22
2024-02-15T10:25:46.342Z,96880.22
2024-02-15T10:28:16.917Z,96874.31
2024-02-15T10:30:46.979Z,96873.78
2024-02-15T10:33:31.476Z,96870.91
2024-02-15T10:36:10.245Z,96860.22
2024-02-15T10:38:37.680Z,96869.91
2024-02-15T10:41:07.250Z,96861.03
2024-02-15T10:43:41.249Z,96856.03
2024-02-15T10:46:11.832Z,96839.78
2024-02-15T10:48:40.053Z,96848.06
2024-02-15T10:51:13.288Z,96840.56
2024-02-15T10:53:51.961Z,96839.38
2024-02-15T10:56:24.642Z,96832.16
2024-02-15T10:59:21.351Z,96830.31
2024-02-15T11:01:54.195Z,96829.28
2024-02-15T11:04:26.697Z,96819.91
2024-02-15T11:06:56.836Z,96815.34
2024-02-15T11:09:24.794Z,96820.38
2024-02-15T11:11:53.972Z,96816.75
2024-02-15T11:14:31.428Z,96820.13
2024-02-15T11:17:03.608Z,96813.69
2024-02-15T11:19:36.288Z,96801.88
2024-02-15T11:22:16.686Z,96797.06
2024-02-15T11:24:53.336Z,96789.31
2024-02-15T11:27:32.770Z,96785.28
2024-02-15T11:30:22.468Z,96786.34
2024-02-15T11:32:51.513Z,96777.19
2024-02-15T11:35:21.708Z,96771.03
2024-02-15T11:37:51.808Z,96766.19
2024-02-15T11:40:26.623Z,96762.75
2024-02-15T11:42:55.544Z,96764.34
2024-02-15T11:45:23.100Z,96763.34
2024-02-15T11:47:54.023Z,96757.28
2024-02-15T11:50:24.323Z,96748.44
2024-02-15T11:52:52.982Z,96747.53
2024-02-15T11:55:23.555Z,96740.47
2024-02-15T11:58:10.899Z,96736.63
2024-02-15T12:00:57.703Z,96736.03
2024-02-15T12:03:52.803Z,96731.16
2024-02-15T12:06:48.138Z,96721.78
2024-02-15T12:09:39.129Z,96720.69
2024-02-15T12:12:25.522Z,96725.16
2024-02-15T12:15:23.041Z,96718.53
2024-02-15T12:18:08.846Z,96707.34
2024-02-15T12:20:36.343Z,96705.91
2024-02-15T12:23:03.689Z,96704.66
2024-02-15T12:25:34.281Z,96712.56
2024-02-15T12:28:05.504Z,96713.81
2024-02-15T12:30:38.099Z,96704.56
2024-02-15T12:33:14.310Z,96696.53
2024-02-15T12:35:43.301Z,96695.63
2024-02-15T12:38:10.584Z,96687.31
2024-02-15T12:40:41.834Z,96687.38
2024-02-15T12:43:10.669Z,96680.56
2024-02-15T12:45:40.401Z,96675.72
2024-02-15T12:48:09.395Z,96677.47
2024-02-15T12:50:36.684Z,96683.38
2024-02-15T12:53:04.124Z,96670.72
2024-02-15T12:55:36.251Z,96664.28
2024-02-15T12:58:09.959Z,96666.16
2024-02-15T13:00:41.119Z,96657.44
2024-02-15T13:03:11.264Z,96650.44
2024-02-15T13:05:40.209Z,96655.13
2024-02-15T13:08:14.337Z,96654.38
2024-02-15T13:10:41.725Z,96650.88
2024-02-15T13:13:10.812Z,96646.75
2024-02-15T13:15:38.478Z,96645.63
2024-02-15T13:18:06.932Z,96640.72
2024-02-15T13:20:35.884Z,96642.22
2024-02-15T13:23:24.074Z,96638.88
2024-02-15T13:25:53.422Z,96640.00
2024-02-15T13:28:20.767Z,96635.38
2024-02-15T13:30:50.488Z,96634.13
2024-02-15T13:33:18.090Z,96635.00
2024-02-15T13:35:45.529Z,96627.19
2024-02-15T13:38:16.035Z,96631.84
2024-02-15T13:40:43.627Z,96625.19
2024-02-15T13:43:10.695Z,96619.94
2024-02-15T13:45:42.466Z,96620.06
2024-02-15T13:48:10.814Z,96607.25
2024-02-15T13:50:40.255Z,96611.88
2024-02-15T13:53:07.991Z,96614.78
2024-02-15T13:55:36.773Z,96613.19
2024-02-15T13:58:03.929Z,96604.34
2024-02-15T14:00:31.417Z,96600.63
2024-02-15T14:03:00.140Z,96610.44
2024-02-15T14:05:30.177Z,96603.56
2024-02-15T14:08:03.231Z,96605.88
2024-02-15T14:10:36.249Z,96593.53
2024-02-15T14:13:09.927Z,96605.97
2024-02-15T14:15:40.740Z,96592.25
2024-02-15T14:18:14.849Z,96592.38
2024-02-15T14:20:43.997Z,96594.63
2024-02-15T14:23:15.063Z,96593.56
2024-02-15T14:25:46.429Z,96585.28
2024-02-15T14:28:15.237Z,96600.03
2024-02-15T14:31:00.695Z,96599.31
2024-02-15T14:35:57.795Z,96595.03
2024-02-15T14:38:25.398Z,96591.44
2024-02-15T14:40:55.113Z,96584.63
2024-02-15T14:43:26.704Z,96588.66
2024-02-15T14:45:55.119Z,96588.31
2024-02-15T14:48:22.595Z,96585.69
2024-02-15T14:50:52.207Z,96586.41
2024-02-15T14:53:20.046Z,96587.72
2024-02-15T14:55:50.598Z,96592.47
2024-02-15T14:58:18.769Z,96586.44
2024-02-15T15:00:48.235Z,96581.84
2024-02-15T15:03:17.355Z,96573.00
2024-02-15T15:06:03.984Z,96583.75
2024-02-15T15:08:49.965Z,96576.88
2024-02-15T15:11:35.466Z,96572.63
2024-02-15T15:14:05.636Z,96579.22
2024-02-15T15:16:32.879Z,96574.38
2024-02-15T15:19:00.109Z,96579.34
2024-02-15T15:21:29.031Z,96578.28
2024-02-15T15:23:57.259Z,96585.75
2024-02-15T15:26:24.504Z,96574.66
2024-02-15T15:28:51.962Z,96579.31
2024-02-15T15:31:21.463Z,96573.75
2024-02-15T15:33:53.726Z,96573.50
2024-02-15T15:36:22.515Z,96572.47
2024-02-15T15:38:49.677Z,96569.31
2024-02-15T15:41:17.201Z,96567.19
2024-02-15T15:43:44.337Z,96568.00
2024-02-15T15:46:17.932Z,96568.63
2024-02-15T15:48:45.314Z,96570.25
2024-02-15T15:51:13.741Z,96572.25
2024-02-15T15:53:41.578Z,96569.75
2024-02-15T15:56:08.978Z,96567.69
2024-02-15T15:58:36.156Z,96571.56
2024-02-15T16:01:04.856Z,96568.66
2024-02-15T16:03:32.575Z,96578.56
2024-02-15T16:05:59.716Z,96574.19
2024-02-15T16:08:27.959Z,96578.13
2024-02-15T16:10:55.363Z,96571.56
2024-02-15T16:13:23.905Z,96570.91
2024-02-15T16:15:55.188Z,96574.41
2024-02-15T16:18:22.750Z,96577.34
2024-02-15T16:20:52.806Z,96575.22
2024-02-15T16:23:21.702Z,96577.41
2024-02-15T16:25:48.693Z,96584.88
2024-02-15T16:28:16.045Z,96579.69
2024-02-15T16:30:43.812Z,96579.13
2024-02-15T16:33:10.998Z,96583.28
2024-02-15T16:35:37.998Z,96574.81
2024-02-15T16:38:06.324Z,96571.72
2024-02-15T16:40:33.440Z,96577.63
2024-02-15T16:43:01.841Z,96573.72
2024-02-15T16:45:28.965Z,96566.19
2024-02-15T16:48:01.834Z,96575.59
2024-02-15T16:50:29.196Z,96571.84
2024-02-15T16:52:56.332Z,96577.22
2024-02-15T16:55:32.240Z,96571.13
2024-02-15T16:58:09.066Z,96563.63
2024-02-15T17:00:36.380Z,96573.06
2024-02-15T17:03:04.006Z,96568.47
2024-02-15T17:05:31.074Z,96570.84
2024-02-15T17:07:58.321Z,96572.16
2024-02-15T17:10:26.186Z,96575.84
2024-02-15T17:12:53.916Z,96583.66
2024-02-15T17:15:27.830Z,96573.53
2024-02-15T17:17:56.159Z,96569.88
2024-02-15T17:20:24.776Z,96570.59
2024-02-15T17:22:53.348Z,96565.09
2024-02-15T17:25:26.470Z,96577.66
2024-02-15T17:28:00.002Z,96578.22
2024-02-15T17:30:27.242Z,96575.47
2024-02-15T17:32:54.565Z,96577.91
2024-02-15T17:35:22.472Z,96578.72
2024-02-15T17:37:49.781Z,96579.59
2024-02-15T17:40:17.809Z,96569.88
2024-02-15T17:42:44.954Z,96581.28
2024-02-15T17:45:13.286Z,96571.13
2024-02-15T17:47:42.734Z,96577.66
2024-02-15T17:50:12.662Z,96572.63
2024-02-15T17:52:40.042Z,96577.78
2024-02-15T17:55:10.287Z,96573.59
2024-02-15T17:57:39.287Z,96568.66
2024-02-15T18:00:16.058Z,96569.31
2024-02-15T18:02:51.088Z,96568.16
2024-02-15T18:05:20.379Z,96564.09
2024-02-15T18:07:48.434Z,96562.09
2024-02-15T18:10:18.257Z,96563.28
2024-02-15T18:12:45.379Z,96563.78
2024-02-15T18:15:26.033Z,96567.75
2024-02-15T18:17:56.534Z,96568.28
2024-02-15T18:20:24.461Z,96553.19
2024-02-15T18:22:53.134Z,96553.03
2024-02-15T18:25:20.098Z,96545.16
2024-02-15T18:27:47.788Z,96550.19
2024-02-15T18:30:19.338Z,96550.03
2024-02-15T18:32:47.391Z,96554.72
2024-02-15T18:35:17.259Z,96552.13
2024-02-15T18:37:45.958Z,96547.63
2024-02-15T18:40:22.267Z,96548.25
2024-02-15T18:42:53.252Z,96549.28
2024-02-15T18:45:20.756Z,96539.97
2024-02-15T18:47:48.059Z,96542.47
2024-02-15T18:50:17.045Z,96535.72
2024-02-15T18:52:44.463Z,96538.00
2024-02-15T18:55:13.320Z,96534.81
2024-02-15T18:57:40.401Z,96531.13
2024-02-15T19:00:16.390Z,96526.53
2024-02-15T19:02:53.155Z,96532.47
2024-02-15T19:05:24.134Z,96531.00
2024-02-15T19:07:52.308Z,96529.59
2024-02-15T19:10:21.081Z,96540.59
2024-02-15T19:12:48.787Z,96532.06
2024-02-15T19:15:16.155Z,96525.75
2024-02-15T19:17:43.413Z,96526.34
2024-02-15T19:20:11.404Z,96525.56
2024-02-15T19:22:39.316Z,96526.84
2024-02-15T19:25:07.371Z,96530.84
2024-02-15T19:27:37.430Z,96530.44
2024-02-15T19:30:04.875Z,96524.34
2024-02-15T19:32:31.867Z,96517.44
2024-02-15T19:34:58.963Z,96526.41
2024-02-15T19:37:31.221Z,96522.31
2024-02-15T19:39:58.130Z,96514.66
2024-02-15T19:42:25.117Z,96517.91
2024-02-15T19:44:52.345Z,96517.88
2024-02-15T19:47:21.491Z,96515.88
2024-02-15T19:49:48.437Z,96516.69
2024-02-15T19:52:16.864Z,96514.66
2024-02-15T19:54:43.786Z,96507.94
2024-02-15T19:57:10.791Z,96506.13
2024-02-15T19:59:37.804Z,96519.16
2024-02-15T20:02:04.924Z,96504.47
2024-02-15T20:04:36.678Z,96504.88
2024-02-15T20:07:04.792Z,96511.44
2024-02-15T20:09:40.531Z,96497.59
2024-02-15T20:12:14.846Z,96492.75
2024-02-15T20:14:42.358Z,96498.06
2024-02-15T20:17:11.589Z,96496.44
2024-02-15T20:19:39.464Z,96504.94
2024-02-15T20:22:08.309Z,96497.44
2024-02-15T20:24:38.852Z,96502.53
2024-02-15T20:27:06.467Z,96511.88
2024-02-15T20:29:35.269Z,96515.94
2024-02-15T20:32:02.307Z,96508.84
2024-02-15T20:34:29.501Z,96508.25
2024-02-15T20:36:58.928Z,96505.41
2024-02-15T20:39:27.259Z,96501.16
2024-02-15T20:41:54.438Z,96505.66
2024-02-15T20:44:21.481Z,96496.94
2024-02-15T20:46:48.492Z,96503.63
2024-02-15T20:49:16.196Z,96499.38
2024-02-15T20:51:43.414Z,96495.13
2024-02-15T20:54:10.350Z,96496.97
2024-02-15T20:56:38.159Z,96498.97
2024-02-15T20:59:08.849Z,96496.16
2024-02-15T21:01:38.158Z,96488.63
2024-02-15T21:04:06.703Z,96486.41
2024-02-15T21:06:38.603Z,96486.81
2024-02-15T21:09:12.446Z,96477.69
2024-02-15T21:11:40.251Z,96475.47
2024-02-15T21:14:08.553Z,96477.88
2024-02-15T21:16:35.551Z,96474.06
2024-02-15T21:19:09.777Z,96470.19
2024-02-15T21:21:37.681Z,96476.69
2024-02-15T21:24:06.942Z,96473.84
2024-02-15T21:26:34.473Z,96467.78
2024-02-15T21:29:03.527Z,96469.56
2024-02-15T21:31:30.417Z,96463.28
2024-02-15T21:33:58.643Z,96474.19
2024-02-15T21:36:25.746Z,96464.88
2024-02-15T21:38:54.441Z,96465.69
2024-02-15T21:41:22.335Z,96466.91
2024-02-15T21:43:49.434Z,96467.28
2024-02-15T21:46:16.425Z,96457.97
2024-02-15T21:48:44.867Z,96461.22
2024-02-15T21:51:12.163Z,96461.22
2024-02-15T21:53:41.885Z,96454.72
2024-02-15T21:56:16.140Z,96462.22
2024-02-15T21:58:43.002Z,96460.19
2024-02-15T22:01:10.697Z,96452.28
2024-02-15T22:03:37.622Z,96450.88
2024-02-15T22:06:05.081Z,96448.84
2024-02-15T22:08:31.994Z,96455.94
2024-02-15T22:10:59.033Z,96446.19
2024-02-15T22:13:25.879Z,96451.06
2024-02-15T22:15:52.702Z,96449.03
2024-02-15T22:18:19.662Z,96435.25
2024-02-15T22:20:47.653Z,96434.00
2024-02-15T22:23:14.537Z,96446.13
2024-02-15T22:25:41.444Z,96443.06
2024-02-15T22:28:08.416Z,96437.19
2024-02-15T22:30:35.693Z,96427.84
2024-02-15T22:33:02.809Z,96426.19
2024-02-15T22:35:29.758Z,96433.88
2024-02-15T22:37:56.588Z,96432.25
2024-02-15T22:40:23.401Z,96434.66
2024-02-15T22:42:50.250Z,96441.91
2024-02-15T22:45:17.682Z,96431.41
2024-02-15T22:47:46.243Z,96437.06
2024-02-15T22:50:13.627Z,96436.81
2024-02-15T22:52:40.802Z,96430.97
2024-02-15T22:55:08.151Z,96432.59
2024-02-15T22:57:35.299Z,96440.63
2024-02-15T23:00:02.522Z,96442.19
2024-02-15T23:02:29.611Z,96440.03
2024-02-15T23:04:56.714Z,96432.56
2024-02-15T23:07:24.730Z,96441.25
2024-02-15T23:09:51.971Z,96444.06
2024-02-15T23:12:19.009Z,96440.03
2024-02-15T23:14:46.058Z,96443.44
2024-02-15T23:17:13.161Z,96452.91
2024-02-15T23:19:40.609Z,96436.72
2024-02-15T23:22:11.447Z,96449.72
2024-02-15T23:24:38.987Z,96448.91
2024-02-15T23:27:06.713Z,96445.69
2024-02-15T23:29:33.932Z,96442.06
2024-02-15T23:32:00.807Z,96442.47
2024-02-15T23:34:27.859Z,96439.75
2024-02-15T23:37:13.147Z,96446.56
2024-02-15T23:39:58.532Z,96437.81
2024-02-15T23:42:26.472Z,96430.31
2024-02-15T23:44:54.406Z,96430.31
2024-02-15T23:47:21.319Z,96428.31
2024-02-15T23:49:49.091Z,96429.94
2024-02-15T23:52:16.061Z,96425.50
2024-02-15T23:54:42.950Z,96424.69
2024-02-15T23:57:09.969Z,96427.31
2024-02-15T23:59:36.927Z,96420.56
